Time;durP1;ratioP1;P1;durP2;ratioP2;P2;SDS_P1;SDS_P2;PMS_P1;PMS_P2;Temp;Humidity;BMP_temperature;BMP_pressure;BME280_temperature;BME280_humidity;BME280_pressure;Samples;Min_cycle;Max_cycle;Signal;HPM_P1;HPM_P2
2023/03/11 00:00:15;;;;;;;2.60;1.40;;;3.60;99.90;;;;;;5057961;28;20024;-71
2023/03/11 00:02:42;;;;;;;2.53;1.80;;;3.60;99.90;;;;;;5058541;28;20013;-71
2023/03/11 00:05:11;;;;;;;3.30;1.60;;;3.40;99.90;;;;;;5057706;28;20025;-70
2023/03/11 00:07:38;;;;;;;4.15;1.90;;;3.10;99.90;;;;;;5058589;28;20104;-71
2023/03/11 00:10:05;;;;;;;2.55;1.85;;;3.10;99.90;;;;;;5058886;28;20044;-70
2023/03/11 00:12:30;;;;;;;2.45;1.80;;;3.10;99.90;;;;;;5058305;28;20025;-71
2023/03/11 00:14:56;;;;;;;2.80;1.73;;;3.00;99.90;;;;;;5058517;28;20132;-70
2023/03/11 00:17:21;;;;;;;2.58;1.77;;;3.10;99.90;;;;;;5058532;28;20075;-70
2023/03/11 00:19:47;;;;;;;5.15;2.08;;;3.10;99.90;;;;;;5058391;28;20021;-71
2023/03/11 00:22:12;;;;;;;3.60;2.38;;;3.20;99.90;;;;;;5057348;28;20025;-70
2023/03/11 00:24:38;;;;;;;3.95;2.58;;;3.20;99.90;;;;;;5058403;28;20021;-70
2023/03/11 00:27:03;;;;;;;4.18;2.30;;;3.20;99.90;;;;;;5058422;28;20064;-70
2023/03/11 00:29:29;;;;;;;2.90;2.40;;;3.30;99.90;;;;;;5057260;28;20017;-70
2023/03/11 00:31:55;;;;;;;2.83;2.05;;;3.30;99.90;;;;;;5058133;28;20033;-70
2023/03/11 00:34:20;;;;;;;4.25;2.55;;;3.10;99.90;;;;;;5057532;28;20025;-70
2023/03/11 00:36:46;;;;;;;2.50;2.08;;;3.00;99.90;;;;;;5057721;28;20036;-70
2023/03/11 00:39:11;;;;;;;3.15;2.33;;;3.00;99.90;;;;;;5057433;28;20034;-70
2023/03/11 00:41:37;;;;;;;4.30;2.28;;;3.00;99.90;;;;;;5057005;28;20021;-70
2023/03/11 00:44:02;;;;;;;2.55;1.90;;;3.20;99.90;;;;;;5057017;28;20044;-71
2023/03/11 00:46:29;;;;;;;2.25;1.40;;;3.30;99.90;;;;;;5057437;28;20021;-71
2023/03/11 00:48:55;;;;;;;1.83;1.60;;;3.40;99.90;;;;;;5071193;28;20035;-71
2023/03/11 00:51:21;;;;;;;3.22;1.58;;;3.50;99.90;;;;;;5076938;28;20024;-71
2023/03/11 00:53:46;;;;;;;3.00;1.50;;;3.60;99.90;;;;;;5076615;28;20044;-70
2023/03/11 00:56:13;;;;;;;2.28;1.80;;;3.60;99.90;;;;;;5077414;28;20119;-70
2023/03/11 00:58:40;;;;;;;2.22;1.45;;;3.50;99.90;;;;;;5077627;28;20096;-70
2023/03/11 01:01:11;;;;;;;2.35;1.50;;;3.40;99.90;;;;;;5076165;28;20028;-70
2023/03/11 01:03:37;;;;;;;1.45;1.10;;;3.40;99.90;;;;;;5076771;28;20024;-71
2023/03/11 01:06:04;;;;;;;1.98;1.38;;;3.50;99.90;;;;;;5076607;28;20017;-71
2023/03/11 01:08:30;;;;;;;1.23;1.05;;;3.50;99.90;;;;;;5076560;28;20025;-71
2023/03/11 01:10:56;;;;;;;1.80;1.20;;;3.60;99.90;;;;;;5076521;28;20044;-70
2023/03/11 01:13:22;;;;;;;2.97;1.50;;;3.60;99.90;;;;;;5076942;28;20024;-70
2023/03/11 01:15:48;;;;;;;3.13;1.48;;;3.40;99.90;;;;;;5077518;28;20021;-70
2023/03/11 01:18:14;;;;;;;4.65;1.42;;;3.30;99.90;;;;;;5076395;28;20028;-70
2023/03/11 01:20:39;;;;;;;2.67;1.73;;;3.30;99.90;;;;;;5076345;28;20024;-70
2023/03/11 01:23:06;;;;;;;1.98;1.50;;;3.30;99.90;;;;;;5076991;28;20043;-71
2023/03/11 01:25:32;;;;;;;1.98;1.50;;;3.30;99.90;;;;;;5077129;28;20025;-70
2023/03/11 01:27:58;;;;;;;2.33;2.00;;;3.40;99.90;;;;;;5076346;28;20031;-70
2023/03/11 01:30:25;;;;;;;4.53;1.80;;;3.40;99.90;;;;;;5077056;28;20036;-71
2023/03/11 01:32:52;;;;;;;3.03;1.60;;;3.30;99.90;;;;;;5076284;28;20071;-71
2023/03/11 01:35:20;;;;;;;1.92;1.63;;;3.40;99.90;;;;;;5075972;28;20059;-71
2023/03/11 01:37:46;;;;;;;2.20;1.35;;;3.40;99.90;;;;;;5076144;28;20021;-70
2023/03/11 01:40:23;;;;;;;2.65;1.30;;;3.30;99.90;;;;;;5077207;28;20089;-70
2023/03/11 01:42:48;;;;;;;2.47;1.23;;;3.10;99.90;;;;;;5076116;28;20056;-70
2023/03/11 01:45:26;;;;;;;1.45;1.30;;;3.00;99.90;;;;;;5077002;28;20052;-71
2023/03/11 01:47:51;;;;;;;1.35;1.10;;;3.00;99.90;;;;;;5076170;28;20016;-70
2023/03/11 01:50:17;;;;;;;3.78;1.10;;;3.00;99.90;;;;;;5077049;28;20070;-71
2023/03/11 01:52:43;;;;;;;1.77;1.50;;;3.10;99.90;;;;;;5076155;28;20036;-70
2023/03/11 01:55:11;;;;;;;7.40;1.27;;;3.20;99.90;;;;;;5075848;28;20028;-71
2023/03/11 01:57:39;;;;;;;2.25;1.50;;;3.30;99.90;;;;;;5075859;28;20027;-71
2023/03/11 02:00:09;;;;;;;1.45;1.10;;;3.30;99.90;;;;;;5077078;28;20021;-71
2023/03/11 02:02:42;;;;;;;3.30;1.48;;;3.30;99.90;;;;;;5076154;28;20021;-70
2023/03/11 02:05:08;;;;;;;2.22;1.23;;;3.40;99.90;;;;;;5076904;28;20073;-71
2023/03/11 02:07:34;;;;;;;1.98;1.50;;;3.50;99.90;;;;;;5075830;28;20025;-71
2023/03/11 02:10:00;;;;;;;2.42;1.45;;;3.50;99.90;;;;;;5075897;28;20043;-70
2023/03/11 02:12:30;;;;;;;1.58;1.38;;;3.60;99.90;;;;;;5076895;28;20028;-71
2023/03/11 02:14:55;;;;;;;4.82;1.40;;;3.50;99.90;;;;;;5080211;28;20024;-70
2023/03/11 02:17:21;;;;;;;2.13;1.30;;;3.50;99.90;;;;;;5080772;28;20092;-71
2023/03/11 02:20:15;;;;;;;2.38;1.25;;;3.60;99.90;;;;;;5080173;28;20024;-71
2023/03/11 02:22:42;;;;;;;3.55;1.55;;;3.80;99.90;;;;;;5080753;28;20029;-70
2023/03/11 02:25:11;;;;;;;2.25;1.40;;;3.70;99.90;;;;;;5080692;28;20025;-71
2023/03/11 02:27:41;;;;;;;3.08;1.55;;;3.70;99.90;;;;;;5080167;28;20025;-71
2023/03/11 02:30:09;;;;;;;1.75;1.38;;;3.60;99.90;;;;;;5080922;28;20032;-71
2023/03/11 02:32:35;;;;;;;3.67;1.73;;;3.60;99.90;;;;;;5079372;28;20028;-70
2023/03/11 02:35:01;;;;;;;1.23;1.00;;;3.60;99.90;;;;;;5080501;28;20021;-71
2023/03/11 02:37:26;;;;;;;3.33;1.33;;;3.70;99.90;;;;;;5079492;28;20024;-71
2023/03/11 02:39:54;;;;;;;2.80;1.10;;;3.60;99.90;;;;;;5080342;28;20028;-70
2023/03/11 02:42:29;;;;;;;3.67;1.38;;;3.50;99.90;;;;;;5080204;28;20060;-70
2023/03/11 02:45:02;;;;;;;2.22;1.20;;;3.50;99.90;;;;;;5079297;28;20027;-71
2023/03/11 02:47:28;;;;;;;1.95;1.27;;;3.50;99.90;;;;;;5080433;28;20050;-70
2023/03/11 02:49:55;;;;;;;2.60;1.30;;;3.60;99.90;;;;;;5079435;28;20024;-71
2023/03/11 02:52:23;;;;;;;1.65;1.23;;;3.60;99.90;;;;;;5079709;28;20081;-70
2023/03/11 02:54:49;;;;;;;3.00;0.82;;;3.60;99.90;;;;;;5079187;28;20059;-70
2023/03/11 02:57:14;;;;;;;2.42;1.20;;;3.60;99.90;;;;;;5080293;28;20035;-70
2023/03/11 02:59:40;;;;;;;1.20;1.10;;;3.50;99.90;;;;;;5078962;28;20031;-71
2023/03/11 03:02:05;;;;;;;1.95;1.23;;;3.50;99.90;;;;;;5080276;28;20024;-71
2023/03/11 03:04:31;;;;;;;1.50;0.90;;;3.40;99.90;;;;;;5079089;28;20031;-71
2023/03/11 03:06:56;;;;;;;1.10;1.00;;;3.50;99.90;;;;;;5079307;28;20027;-70
2023/03/11 03:09:22;;;;;;;1.38;1.10;;;3.50;99.90;;;;;;5080232;28;20027;-70
2023/03/11 03:11:47;;;;;;;1.25;1.00;;;3.60;99.90;;;;;;5078888;28;20056;-70
2023/03/11 03:14:13;;;;;;;1.48;1.08;;;3.50;99.90;;;;;;5079713;28;20032;-70
2023/03/11 03:16:38;;;;;;;1.13;1.02;;;3.40;99.90;;;;;;5078686;28;20092;-70
2023/03/11 03:19:04;;;;;;;1.48;1.10;;;3.40;99.90;;;;;;5079356;28;20032;-70
2023/03/11 03:21:29;;;;;;;3.63;1.25;;;3.50;99.90;;;;;;5078526;28;20119;-70
2023/03/11 03:23:55;;;;;;;0.88;0.85;;;3.50;99.90;;;;;;5078386;28;20021;-70
2023/03/11 03:26:20;;;;;;;1.33;1.23;;;3.50;99.90;;;;;;5078693;28;20021;-70
2023/03/11 03:28:46;;;;;;;2.28;0.80;;;3.50;99.90;;;;;;5078974;28;20061;-71
2023/03/11 03:31:13;;;;;;;1.40;1.15;;;3.50;99.90;;;;;;5078477;28;20024;-70
2023/03/11 03:33:38;;;;;;;1.85;1.00;;;3.50;99.90;;;;;;5079292;28;20060;-70
2023/03/11 03:36:10;;;;;;;2.83;1.13;;;3.50;99.90;;;;;;5078475;28;20029;-70
2023/03/11 03:38:36;;;;;;;1.50;1.40;;;3.50;99.90;;;;;;5079189;28;20028;-70
2023/03/11 03:41:01;;;;;;;2.28;1.27;;;3.50;99.90;;;;;;5078442;28;20028;-71
2023/03/11 03:43:27;;;;;;;2.10;1.10;;;3.50;99.90;;;;;;5079209;28;20020;-70
2023/03/11 03:45:58;;;;;;;1.45;1.17;;;3.50;99.90;;;;;;5078467;28;20024;-70
2023/03/11 03:48:24;;;;;;;1.75;1.20;;;3.50;99.90;;;;;;5078926;28;20021;-71
2023/03/11 03:50:50;;;;;;;3.75;1.15;;;3.50;99.90;;;;;;5079231;28;20031;-71
2023/03/11 03:53:15;;;;;;;1.77;1.10;;;3.60;99.90;;;;;;5078086;28;20041;-70
2023/03/11 03:55:41;;;;;;;1.48;1.05;;;3.60;99.90;;;;;;5079357;28;20033;-68
2023/03/11 03:58:07;;;;;;;2.10;1.02;;;3.60;99.90;;;;;;5077891;28;20029;-68
2023/03/11 04:00:33;;;;;;;1.00;0.90;;;3.60;99.90;;;;;;5078833;28;20035;-68
2023/03/11 04:02:59;;;;;;;2.63;1.10;;;3.60;99.90;;;;;;5077761;28;20021;-68
2023/03/11 04:05:25;;;;;;;2.00;1.00;;;3.60;99.90;;;;;;5077806;28;20024;-68
2023/03/11 04:07:51;;;;;;;2.45;1.10;;;3.60;99.90;;;;;;5077833;28;20027;-68
2023/03/11 04:10:17;;;;;;;2.22;1.10;;;3.50;99.90;;;;;;5078196;28;20023;-68
2023/03/11 04:12:43;;;;;;;1.35;0.80;;;3.50;99.90;;;;;;5077808;28;20020;-68
2023/03/11 04:15:09;;;;;;;0.95;0.82;;;3.60;99.90;;;;;;5077804;28;20039;-68
2023/03/11 04:17:35;;;;;;;0.70;0.70;;;3.60;99.90;;;;;;5078064;28;20036;-68
2023/03/11 04:20:01;;;;;;;1.23;1.00;;;3.60;99.90;;;;;;5077782;28;20088;-68
2023/03/11 04:22:26;;;;;;;1.67;1.08;;;3.60;99.90;;;;;;5077395;28;20116;-68
2023/03/11 04:24:52;;;;;;;4.18;1.10;;;3.70;99.90;;;;;;5077877;28;20021;-68
2023/03/11 04:27:17;;;;;;;1.85;1.15;;;3.70;99.90;;;;;;5078207;28;20021;-68
2023/03/11 04:29:43;;;;;;;3.17;0.75;;;3.70;99.90;;;;;;5077293;28;20021;-68
2023/03/11 04:32:08;;;;;;;2.33;0.70;;;3.50;99.90;;;;;;5077223;28;20024;-68
2023/03/11 04:34:34;;;;;;;2.97;0.80;;;3.60;99.90;;;;;;5078617;28;20036;-67
2023/03/11 04:37:00;;;;;;;3.70;0.73;;;3.60;99.90;;;;;;5077156;28;20024;-67
2023/03/11 04:39:25;;;;;;;2.97;0.50;;;3.60;99.90;;;;;;5077226;28;20025;-68
2023/03/11 04:41:51;;;;;;;0.88;0.63;;;3.60;99.90;;;;;;5077326;28;20064;-68
2023/03/11 04:44:16;;;;;;;2.90;0.70;;;3.60;99.90;;;;;;5077118;28;20111;-68
2023/03/11 04:46:42;;;;;;;1.80;0.57;;;3.60;99.90;;;;;;5077067;28;20024;-67
2023/03/11 04:49:08;;;;;;;1.73;0.80;;;3.60;99.90;;;;;;5076928;28;20021;-67
2023/03/11 04:51:34;;;;;;;2.50;0.60;;;3.70;99.90;;;;;;5076890;28;20116;-68
2023/03/11 04:53:59;;;;;;;3.13;0.57;;;3.70;99.90;;;;;;5077191;28;20105;-68
2023/03/11 04:56:25;;;;;;;3.50;0.73;;;3.70;99.90;;;;;;5076882;28;20050;-68
2023/03/11 04:58:50;;;;;;;1.70;0.90;;;3.70;99.90;;;;;;5076812;28;20064;-68
2023/03/11 05:01:16;;;;;;;1.65;0.70;;;3.70;99.90;;;;;;5076630;28;20116;-68
2023/03/11 05:03:41;;;;;;;0.70;0.57;;;3.70;99.90;;;;;;5076906;28;20030;-68
2023/03/11 05:06:07;;;;;;;0.82;0.57;;;3.70;99.90;;;;;;5076841;28;20120;-68
2023/03/11 05:08:32;;;;;;;1.52;0.85;;;3.70;99.90;;;;;;5076533;28;20024;-68
2023/03/11 05:10:58;;;;;;;1.75;0.80;;;3.80;99.90;;;;;;5076602;28;20024;-68
2023/03/11 05:13:23;;;;;;;1.45;0.70;;;3.70;99.90;;;;;;5077336;28;20031;-68
2023/03/11 05:15:49;;;;;;;3.22;0.80;;;3.70;99.90;;;;;;5077277;28;20100;-68
2023/03/11 05:18:15;;;;;;;3.15;0.80;;;3.70;99.90;;;;;;5077273;28;20085;-68
2023/03/11 05:20:40;;;;;;;1.27;0.50;;;3.70;99.90;;;;;;5076462;28;20058;-68
2023/03/11 05:23:06;;;;;;;2.25;0.60;;;3.70;99.90;;;;;;5076391;28;20028;-67
2023/03/11 05:25:31;;;;;;;4.63;0.88;;;3.70;99.90;;;;;;5077438;28;20096;-67
2023/03/11 05:27:57;;;;;;;2.30;0.82;;;3.80;99.90;;;;;;5062680;28;20204;-67
2023/03/11 05:30:23;;;;;;;1.08;0.90;;;3.80;99.90;;;;;;5075061;28;20031;-67
2023/03/11 05:32:48;;;;;;;2.80;0.98;;;3.70;99.90;;;;;;5056442;28;20048;-67
2023/03/11 05:35:18;;;;;;;2.00;1.55;;;3.70;99.90;;;;;;5072896;28;20106;-67
2023/03/11 05:37:43;;;;;;;4.40;0.90;;;3.80;99.90;;;;;;5075682;28;20028;-66
2023/03/11 05:40:11;;;;;;;2.15;0.85;;;3.80;99.90;;;;;;5074920;28;20032;-66
2023/03/11 05:42:36;;;;;;;1.60;0.73;;;3.80;99.90;;;;;;5076143;28;20032;-67
2023/03/11 05:45:02;;;;;;;3.95;0.85;;;3.80;99.90;;;;;;5075468;28;20070;-66
2023/03/11 05:47:28;;;;;;;2.60;0.70;;;3.80;99.90;;;;;;5075586;28;20017;-67
2023/03/11 05:49:54;;;;;;;3.83;0.75;;;3.70;99.90;;;;;;5076083;28;20082;-67
2023/03/11 05:52:19;;;;;;;2.47;0.57;;;3.70;99.90;;;;;;5076606;28;20111;-67
2023/03/11 05:54:49;;;;;;;1.45;0.70;;;3.70;99.90;;;;;;5073292;28;20037;-67
2023/03/11 05:57:14;;;;;;;4.30;1.40;;;3.70;99.90;;;;;;5056088;28;20166;-67
2023/03/11 05:59:40;;;;;;;4.38;1.00;;;3.70;99.90;;;;;;5055994;28;20112;-67
2023/03/11 06:02:05;;;;;;;1.90;0.90;;;3.60;99.90;;;;;;5056603;28;20084;-67
2023/03/11 06:04:31;;;;;;;0.95;0.75;;;3.60;99.90;;;;;;5055739;28;20044;-67
2023/03/11 06:06:57;;;;;;;2.72;0.90;;;3.70;99.90;;;;;;5056703;28;20078;-67
2023/03/11 06:09:22;;;;;;;0.70;0.70;;;3.70;99.90;;;;;;5056946;28;20067;-67
2023/03/11 06:11:48;;;;;;;2.85;0.90;;;3.60;99.90;;;;;;5055717;28;20025;-67
2023/03/11 06:14:13;;;;;;;2.97;1.00;;;3.50;99.90;;;;;;5055961;28;20024;-67
2023/03/11 06:16:40;;;;;;;3.45;0.90;;;3.60;99.90;;;;;;5055620;28;20025;-67
2023/03/11 06:19:06;;;;;;;1.23;0.80;;;3.50;99.90;;;;;;5055766;28;20033;-65
2023/03/11 06:21:31;;;;;;;1.77;1.17;;;3.60;99.90;;;;;;5057712;28;20059;-65
2023/03/11 06:23:57;;;;;;;2.40;0.82;;;3.60;99.90;;;;;;5076525;28;20024;-64
2023/03/11 06:26:23;;;;;;;1.55;0.80;;;3.70;99.90;;;;;;5057983;28;20067;-64
2023/03/11 06:28:50;;;;;;;1.05;0.77;;;3.60;99.90;;;;;;5069365;28;20075;-64
2023/03/11 06:31:23;;;;;;;3.22;1.02;;;3.80;99.90;;;;;;5075734;28;20025;-64
2023/03/11 06:33:48;;;;;;;1.67;0.80;;;3.60;99.90;;;;;;5075938;28;20024;-65
2023/03/11 06:36:18;;;;;;;2.58;0.95;;;3.60;99.90;;;;;;5075654;28;20032;-66
2023/03/11 06:38:45;;;;;;;5.63;1.35;;;3.60;99.90;;;;;;5058503;28;20048;-65
2023/03/11 06:41:11;;;;;;;3.65;1.10;;;3.60;99.90;;;;;;5065702;28;20024;-65
2023/03/11 06:43:37;;;;;;;5.40;1.10;;;3.50;99.90;;;;;;5076419;28;20029;-66
2023/03/11 06:46:15;;;;;;;2.30;0.85;;;3.50;99.90;;;;;;5075736;28;20024;-65
2023/03/11 06:48:41;;;;;;;1.83;0.90;;;3.60;99.90;;;;;;5076040;28;20024;-66
2023/03/11 06:51:06;;;;;;;4.68;0.93;;;3.60;99.90;;;;;;5075734;28;20139;-65
2023/03/11 06:53:32;;;;;;;3.72;1.38;;;3.50;99.90;;;;;;5061221;28;20045;-65
2023/03/11 06:56:04;;;;;;;6.10;1.27;;;3.60;99.90;;;;;;5056262;28;20017;-65
2023/03/11 06:58:31;;;;;;;4.82;1.77;;;3.60;99.90;;;;;;5056153;28;20021;-65
2023/03/11 07:01:14;;;;;;;2.30;1.00;;;3.50;99.90;;;;;;5057472;28;20032;-65
2023/03/11 07:03:40;;;;;;;3.92;1.52;;;3.40;99.90;;;;;;5059243;28;20045;-65
2023/03/11 07:06:10;;;;;;;6.25;1.30;;;3.40;99.90;;;;;;5058917;28;20021;-65
2023/03/11 07:08:36;;;;;;;5.72;1.38;;;3.30;99.90;;;;;;5058876;28;20025;-65
2023/03/11 07:11:05;;;;;;;3.70;1.42;;;3.50;99.90;;;;;;5059653;28;20033;-65
2023/03/11 07:13:31;;;;;;;2.88;1.25;;;3.50;99.90;;;;;;5058804;28;20056;-65
2023/03/11 07:16:23;;;;;;;10.07;1.25;;;3.70;99.90;;;;;;5060154;28;20028;-66
2023/03/11 07:18:49;;;;;;;;;;;3.70;99.90;;;;;;5070139;28;20074;-65
2023/03/11 07:21:17;;;;;;;5.32;1.58;;;3.60;99.90;;;;;;5079474;28;19945;-65
2023/03/11 07:23:43;;;;;;;8.68;1.98;;;3.70;99.90;;;;;;5079423;28;20017;-65
2023/03/11 07:26:11;;;;;;;3.28;1.52;;;3.60;99.90;;;;;;5079374;28;20025;-65
2023/03/11 07:28:37;;;;;;;3.60;1.67;;;3.70;99.90;;;;;;5079285;28;20020;-65
2023/03/11 07:31:08;;;;;;;4.07;1.55;;;3.60;99.90;;;;;;5078351;28;20074;-65
2023/03/11 07:33:33;;;;;;;4.50;1.77;;;3.60;99.90;;;;;;5079178;28;20025;-65
2023/03/11 07:36:03;;;;;;;6.50;2.40;;;3.60;99.90;;;;;;5078718;28;20025;-65
2023/03/11 07:38:28;;;;;;;7.15;1.70;;;3.70;99.90;;;;;;5078354;28;20024;-66
2023/03/11 07:40:58;;;;;;;5.38;2.00;;;3.80;99.90;;;;;;5079209;28;20147;-65
2023/03/11 07:43:24;;;;;;;6.82;2.65;;;3.90;99.90;;;;;;5078416;28;20020;-65
2023/03/11 07:45:50;;;;;;;4.63;1.70;;;3.80;99.90;;;;;;5078655;28;20024;-65
2023/03/11 07:48:16;;;;;;;9.63;3.17;;;3.70;99.90;;;;;;5078742;28;20020;-65
2023/03/11 07:50:41;;;;;;;21.95;7.88;;;3.80;99.90;;;;;;5078134;28;20028;-65
2023/03/11 07:53:07;;;;;;;18.48;6.53;;;3.80;99.90;;;;;;5077871;28;20119;-65
2023/03/11 07:55:33;;;;;;;9.38;4.47;;;3.90;99.90;;;;;;5078896;28;20028;-68
2023/03/11 07:57:58;;;;;;;9.35;3.28;;;3.90;99.90;;;;;;5078254;28;20035;-65
2023/03/11 08:00:24;;;;;;;5.10;2.47;;;3.90;99.90;;;;;;5078724;28;20096;-65
2023/03/11 08:02:50;;;;;;;3.45;2.03;;;4.00;99.90;;;;;;5077884;28;20027;-69
2023/03/11 08:05:17;;;;;;;5.25;2.60;;;4.00;99.90;;;;;;5078705;28;20025;-68
2023/03/11 08:07:42;;;;;;;7.70;2.75;;;4.00;99.90;;;;;;5078928;28;20112;-69
2023/03/11 08:10:09;;;;;;;7.63;2.10;;;4.00;99.90;;;;;;5078815;28;20055;-66
2023/03/11 08:12:34;;;;;;;7.65;2.42;;;4.00;99.90;;;;;;5077159;28;20119;-66
2023/03/11 08:15:00;;;;;;;3.03;1.63;;;4.20;99.90;;;;;;5077733;28;20060;-66
2023/03/11 08:17:25;;;;;;;7.88;1.77;;;4.30;99.90;;;;;;5077553;28;20035;-66
2023/03/11 08:19:51;;;;;;;7.72;2.90;;;4.20;99.90;;;;;;5078781;28;20040;-66
2023/03/11 08:22:16;;;;;;;6.00;1.90;;;4.30;99.90;;;;;;5077784;28;20034;-66
2023/03/11 08:24:42;;;;;;;9.65;1.90;;;4.20;99.90;;;;;;5077398;28;20024;-66
2023/03/11 08:27:08;;;;;;;4.57;1.63;;;4.20;99.90;;;;;;5077345;28;20021;-66
2023/03/11 08:29:34;;;;;;;7.43;1.52;;;4.20;99.90;;;;;;5077228;28;20017;-66
2023/03/11 08:32:01;;;;;;;4.82;1.30;;;4.30;99.90;;;;;;5077025;28;20025;-66
2023/03/11 08:34:30;;;;;;;4.97;1.35;;;4.30;99.90;;;;;;5077150;28;20021;-65
2023/03/11 08:36:55;;;;;;;4.35;1.02;;;4.30;99.90;;;;;;5077137;28;20025;-66
2023/03/11 08:39:22;;;;;;;3.88;1.00;;;4.30;99.90;;;;;;5077252;28;20023;-66
2023/03/11 08:41:48;;;;;;;4.32;0.90;;;4.30;99.90;;;;;;5077860;28;20081;-66
2023/03/11 08:44:13;;;;;;;2.58;1.10;;;4.40;99.90;;;;;;5077345;28;20020;-66
2023/03/11 08:46:39;;;;;;;2.88;1.35;;;4.40;99.90;;;;;;5077900;28;20105;-66
2023/03/11 08:49:05;;;;;;;3.38;0.80;;;4.50;99.90;;;;;;5078103;28;20032;-66
2023/03/11 08:51:32;;;;;;;3.10;0.80;;;4.40;99.90;;;;;;5078177;28;20077;-66
2023/03/11 08:53:59;;;;;;;2.83;0.80;;;4.40;99.90;;;;;;5077488;28;20081;-66
2023/03/11 08:56:25;;;;;;;2.72;0.70;;;4.50;99.90;;;;;;5076783;28;20025;-66
2023/03/11 08:58:50;;;;;;;1.73;0.65;;;4.40;99.90;;;;;;5077803;28;20029;-66
2023/03/11 09:01:17;;;;;;;0.85;0.57;;;4.30;99.90;;;;;;5076758;28;20065;-66
2023/03/11 09:03:42;;;;;;;5.65;0.82;;;4.30;99.90;;;;;;5076919;28;20021;-66
2023/03/11 09:06:12;;;;;;;2.80;1.17;;;4.20;99.90;;;;;;5076750;28;20074;-66
2023/03/11 09:08:38;;;;;;;4.35;1.08;;;4.40;99.90;;;;;;5077618;28;20025;-66
2023/03/11 09:11:04;;;;;;;3.38;0.85;;;4.40;99.90;;;;;;5077580;28;20020;-66
2023/03/11 09:13:30;;;;;;;3.05;0.43;;;4.40;99.90;;;;;;5076893;28;20024;-66
2023/03/11 09:15:56;;;;;;;4.45;0.90;;;4.40;99.90;;;;;;5076783;28;20032;-66
2023/03/11 09:18:21;;;;;;;1.60;0.45;;;4.40;99.90;;;;;;5077702;28;20085;-66
2023/03/11 09:20:47;;;;;;;6.68;0.75;;;4.60;99.90;;;;;;5076218;28;20035;-66
2023/03/11 09:23:15;;;;;;;1.70;0.47;;;4.60;99.90;;;;;;5075722;28;20135;-66
2023/03/11 09:25:41;;;;;;;4.13;0.35;;;4.60;99.90;;;;;;5076373;28;20025;-66
2023/03/11 09:28:07;;;;;;;7.88;0.60;;;4.60;99.90;;;;;;5076328;28;20051;-66
2023/03/11 09:30:33;;;;;;;1.30;0.60;;;4.70;99.90;;;;;;5076385;28;20017;-66
2023/03/11 09:32:58;;;;;;;3.10;0.75;;;4.70;99.90;;;;;;5077048;28;20032;-66
2023/03/11 09:35:24;;;;;;;6.53;0.63;;;4.80;99.90;;;;;;5076172;28;20021;-67
2023/03/11 09:37:50;;;;;;;1.30;0.50;;;4.80;99.90;;;;;;5076350;28;20016;-68
2023/03/11 09:40:19;;;;;;;1.05;0.50;;;4.80;99.90;;;;;;5076275;28;20028;-68
2023/03/11 09:43:00;;;;;;;3.03;0.63;;;4.80;99.90;;;;;;5076114;28;20035;-68
2023/03/11 09:45:30;;;;;;;7.05;0.90;;;4.90;99.90;;;;;;5076596;28;20049;-67
2023/03/11 09:48:17;;;;;;;2.97;0.50;;;4.90;99.90;;;;;;5076179;28;20056;-67
2023/03/11 09:50:49;;;;;;;2.63;0.52;;;5.00;99.90;;;;;;5076130;28;20025;-68
2023/03/11 09:53:21;;;;;;;;;;;4.90;99.90;;;;;;5076362;28;20038;-67
2023/03/11 09:55:51;;;;;;;0.68;0.43;;;5.00;99.90;;;;;;5093435;28;19912;-67
2023/03/11 09:58:38;;;;;;;2.55;0.52;;;4.90;99.90;;;;;;5077026;28;20029;-67
2023/03/11 10:01:23;;;;;;;1.20;0.30;;;4.90;99.90;;;;;;5076875;28;20081;-66
2023/03/11 10:03:52;;;;;;;1.65;0.60;;;4.90;99.90;;;;;;5076775;28;20017;-66
2023/03/11 10:06:27;;;;;;;2.28;0.75;;;4.90;99.90;;;;;;5077038;28;20047;-67
2023/03/11 10:09:05;;;;;;;5.38;0.50;;;5.00;99.90;;;;;;5076803;28;20017;-67
2023/03/11 10:11:33;;;;;;;8.15;1.48;;;5.00;99.90;;;;;;5075943;28;20106;-67
2023/03/11 10:14:15;;;;;;;2.25;0.43;;;5.10;99.90;;;;;;5076163;28;20025;-67
2023/03/11 10:17:16;;;;;;;5.82;0.80;;;5.20;99.90;;;;;;5075929;28;20092;-67
2023/03/11 10:20:03;;;;;;;4.97;0.63;;;5.30;99.90;;;;;;5075833;28;20036;-67
2023/03/11 10:22:46;;;;;;;1.65;0.60;;;5.20;99.90;;;;;;5068458;28;20044;-67
2023/03/11 10:25:27;;;;;;;3.95;0.40;;;5.20;99.90;;;;;;5056610;28;20025;-67
2023/03/11 10:28:09;;;;;;;1.17;0.57;;;5.30;99.90;;;;;;5056782;28;20082;-67
2023/03/11 10:30:40;;;;;;;1.15;0.57;;;5.20;99.90;;;;;;5065231;28;20029;-67
2023/03/11 10:33:25;;;;;;;1.02;0.50;;;5.40;99.90;;;;;;5061615;28;20032;-69
2023/03/11 10:35:54;;;;;;;2.28;0.43;;;5.60;99.90;;;;;;5080079;28;20020;-69
2023/03/11 10:38:21;;;;;;;2.15;0.63;;;6.30;99.90;;;;;;5079893;28;20027;-69
2023/03/11 10:40:50;;;;;;;6.63;0.77;;;6.50;99.90;;;;;;5079018;28;20033;-69
2023/03/11 10:43:42;;;;;;;10.95;0.70;;;6.40;99.90;;;;;;5067978;28;20052;-69
2023/03/11 10:46:23;;;;;;;0.88;0.50;;;6.20;99.90;;;;;;5061882;28;20017;-69
2023/03/11 10:48:49;;;;;;;1.85;0.70;;;6.10;99.90;;;;;;5059395;28;20052;-69
2023/03/11 10:51:25;;;;;;;1.52;0.43;;;5.80;99.90;;;;;;5059963;28;20066;-69
2023/03/11 10:53:59;;;;;;;4.18;0.57;;;5.80;99.90;;;;;;5059065;28;20058;-72
2023/03/11 10:56:33;;;;;;;0.32;0.30;;;5.70;99.90;;;;;;5060161;28;20053;-70
2023/03/11 10:59:00;;;;;;;4.45;0.88;;;5.40;99.90;;;;;;5059922;28;20037;-70
2023/03/11 11:01:27;;;;;;;1.38;0.40;;;5.50;99.90;;;;;;5059281;28;20078;-70
2023/03/11 11:03:54;;;;;;;1.75;0.95;;;5.60;99.90;;;;;;5059754;28;20025;-71
2023/03/11 11:06:29;;;;;;;6.28;1.13;;;5.60;99.90;;;;;;5059829;28;20025;-70
2023/03/11 11:09:11;;;;;;;4.20;0.85;;;5.60;99.90;;;;;;5060065;28;20021;-70
2023/03/11 11:11:38;;;;;;;3.47;1.00;;;5.90;99.90;;;;;;5059956;28;20029;-66
2023/03/11 11:14:04;;;;;;;2.53;1.10;;;6.10;99.90;;;;;;5059440;28;20048;-65
2023/03/11 11:16:33;;;;;;;7.85;0.80;;;6.40;99.90;;;;;;5059845;28;20033;-66
2023/03/11 11:19:13;;;;;;;1.00;0.60;;;6.90;99.90;;;;;;5058813;28;20025;-66
2023/03/11 11:21:42;;;;;;;2.13;0.50;;;7.30;99.90;;;;;;5059809;28;20025;-66
2023/03/11 11:24:19;;;;;;;2.17;0.60;;;7.40;99.90;;;;;;5058655;28;20047;-66
2023/03/11 11:27:15;;;;;;;1.65;0.43;;;7.60;99.90;;;;;;5058568;28;20013;-66
2023/03/11 11:29:41;;;;;;;2.85;0.75;;;7.40;99.90;;;;;;5059479;28;20025;-66
2023/03/11 11:32:25;;;;;;;1.13;0.60;;;7.20;99.90;;;;;;5059236;28;20036;-66
2023/03/11 11:35:09;;;;;;;2.28;0.60;;;7.30;99.90;;;;;;5058485;28;20179;-66
2023/03/11 11:37:54;;;;;;;2.60;0.85;;;7.10;99.90;;;;;;5059296;28;20029;-66
2023/03/11 11:40:29;;;;;;;0.82;0.80;;;7.00;99.90;;;;;;5058132;28;20036;-66
2023/03/11 11:43:03;;;;;;;3.88;0.75;;;7.10;99.90;;;;;;5059128;28;20029;-65
2023/03/11 11:45:36;;;;;;;6.68;2.08;;;7.00;99.90;;;;;;5058378;28;20052;-66
2023/03/11 11:48:24;;;;;;;2.80;0.98;;;7.10;99.90;;;;;;5059096;28;20029;-67
2023/03/11 11:50:59;;;;;;;1.27;0.63;;;7.10;99.90;;;;;;5058633;28;20036;-66
2023/03/11 11:53:45;;;;;;;4.10;1.30;;;6.80;99.90;;;;;;5058159;28;20036;-66
2023/03/11 11:56:11;;;;;;;2.45;0.80;;;6.90;99.90;;;;;;5059095;28;20080;-66
2023/03/11 11:58:40;;;;;;;3.63;0.77;;;7.30;99.90;;;;;;5058109;28;20028;-66
2023/03/11 12:01:20;;;;;;;2.45;0.80;;;7.60;99.90;;;;;;5057993;28;20025;-65
2023/03/11 12:03:52;;;;;;;2.55;0.50;;;7.70;99.90;;;;;;5058456;28;20033;-66
2023/03/11 12:06:20;;;;;;;2.67;0.50;;;7.80;99.90;;;;;;5058130;28;20025;-66
2023/03/11 12:09:04;;;;;;;3.30;0.40;;;7.70;98.70;;;;;;5058782;28;20035;-66
2023/03/11 12:11:49;;;;;;;0.55;0.50;;;7.40;98.80;;;;;;5058691;28;20059;-66
2023/03/11 12:14:20;;;;;;;2.10;0.75;;;7.70;98.30;;;;;;5058643;28;20025;-66
2023/03/11 12:17:01;;;;;;;5.13;0.80;;;8.30;96.20;;;;;;5058613;28;20032;-66
2023/03/11 12:19:39;;;;;;;0.77;0.40;;;8.50;96.80;;;;;;5058418;28;20037;-66
2023/03/11 12:22:13;;;;;;;3.03;0.50;;;8.10;96.60;;;;;;5057596;28;20021;-66
2023/03/11 12:25:03;;;;;;;0.70;0.45;;;8.00;98.80;;;;;;5057633;28;20058;-66
2023/03/11 12:27:38;;;;;;;1.52;0.52;;;7.90;95.10;;;;;;5058619;28;20043;-66
2023/03/11 12:30:14;;;;;;;2.42;0.40;;;7.40;95.80;;;;;;5058183;28;20044;-66
2023/03/11 12:32:46;;;;;;;3.70;0.85;;;7.30;96.40;;;;;;5057586;28;20063;-66
2023/03/11 12:35:27;;;;;;;1.65;0.60;;;6.70;96.90;;;;;;5058082;28;20024;-66
2023/03/11 12:38:02;;;;;;;0.55;0.35;;;6.60;97.10;;;;;;5058212;28;20033;-65
2023/03/11 12:40:43;;;;;;;4.40;0.57;;;6.30;97.10;;;;;;5057233;28;20032;-66
2023/03/11 12:43:34;;;;;;;3.63;0.90;;;6.10;96.90;;;;;;5057401;28;20024;-66
2023/03/11 12:46:02;;;;;;;4.70;0.43;;;6.40;97.60;;;;;;5020143;28;20029;-66
2023/03/11 12:48:39;;;;;;;1.70;0.45;;;6.60;97.00;;;;;;5057933;28;20317;-66
2023/03/11 12:51:05;;;;;;;2.55;0.60;;;7.10;98.30;;;;;;5056913;28;20021;-65
2023/03/11 12:53:46;;;;;;;1.52;0.60;;;7.30;99.90;;;;;;5056967;28;20040;-66
2023/03/11 12:56:27;;;;;;;1.95;0.52;;;7.50;99.80;;;;;;5057708;28;20076;-66
2023/03/11 12:59:20;;;;;;;2.97;0.50;;;7.40;96.00;;;;;;5056961;28;20100;-66
2023/03/11 13:02:04;;;;;;;2.53;0.60;;;7.30;95.80;;;;;;5057906;28;20033;-66
2023/03/11 13:04:42;;;;;;;1.33;0.43;;;7.60;99.90;;;;;;5056601;28;20021;-66
2023/03/11 13:07:33;;;;;;;1.33;0.77;;;7.90;98.20;;;;;;5057711;28;20080;-66